createdAt,value
2022-10-12T00:03:07.948Z,73.63
2022-10-12T00:07:09.498Z,68.60
2022-10-12T00:11:14.697Z,81.35
2022-10-12T00:15:16.594Z,77.80
2022-10-12T00:19:18.433Z,69.82
2022-10-12T00:23:20.032Z,71.07
2022-10-12T00:27:22.064Z,78.63
2022-10-12T00:31:24.605Z,67.15
2022-10-12T00:35:29.625Z,71.13
2022-10-12T00:39:31.279Z,75.68
2022-10-12T00:43:39.256Z,81.40
2022-10-12T00:47:51.601Z,74.95
2022-10-12T00:51:58.702Z,76.93
2022-10-12T00:56:04.749Z,72.22
2022-10-12T01:00:09.777Z,79.53
2022-10-12T01:04:11.618Z,75.78
2022-10-12T01:08:13.508Z,85.72
2022-10-12T01:12:16.181Z,81.82
2022-10-12T01:17:01.626Z,69.13
2022-10-12T01:21:20.949Z,79.38
2022-10-12T01:25:53.666Z,73.70
2022-10-12T01:30:07.260Z,68.68
2022-10-12T01:34:18.016Z,74.60
2022-10-12T01:38:44.675Z,73.93
2022-10-12T01:42:47.424Z,70.32
2022-10-12T01:46:49.795Z,64.05
2022-10-12T01:50:56.293Z,81.10
2022-10-12T01:55:19.619Z,71.13
2022-10-12T01:59:59.424Z,67.00
2022-10-12T02:04:10.185Z,68.10
2022-10-12T02:08:31.192Z,68.90
2022-10-12T02:12:34.562Z,65.07
2022-10-12T02:16:42.322Z,66.95
2022-10-12T02:20:48.824Z,62.43
2022-10-12T02:24:53.152Z,70.88
2022-10-12T02:28:55.269Z,67.95
2022-10-12T02:33:05.808Z,63.40
2022-10-12T02:37:12.288Z,66.32
2022-10-12T02:41:23.368Z,60.00
2022-10-12T02:45:25.819Z,65.43
2022-10-12T02:49:29.620Z,66.00
2022-10-12T02:53:31.360Z,67.45
2022-10-12T02:57:33.265Z,71.03
2022-10-12T03:01:34.925Z,56.13
2022-10-12T03:05:37.165Z,63.63
2022-10-12T03:09:38.838Z,55.15
2022-10-12T03:13:40.798Z,59.17
2022-10-12T03:17:42.735Z,60.22
2022-10-12T03:21:44.765Z,66.28
2022-10-12T03:25:46.415Z,55.40
2022-10-12T03:29:48.246Z,63.50
2022-10-12T03:33:49.867Z,57.10
2022-10-12T03:37:51.763Z,60.88
2022-10-12T03:41:53.532Z,59.42
2022-10-12T03:45:55.345Z,64.15
2022-10-12T03:49:57.004Z,65.15
2022-10-12T03:53:58.920Z,60.88
2022-10-12T03:58:00.704Z,60.92
2022-10-12T04:02:02.523Z,63.75
2022-10-12T04:06:04.755Z,67.25
2022-10-12T04:10:07.219Z,52.13
2022-10-12T04:14:08.897Z,63.58
2022-10-12T04:18:11.019Z,62.10
2022-10-12T04:22:12.736Z,64.15
2022-10-12T04:26:14.599Z,70.90
2022-10-12T04:30:16.367Z,68.72
2022-10-12T04:34:19.531Z,64.88
2022-10-12T04:38:21.165Z,72.82
2022-10-12T04:42:23.215Z,72.15
2022-10-12T04:46:24.913Z,78.93
2022-10-12T04:50:30.053Z,81.75
2022-10-12T04:54:32.874Z,79.15
2022-10-12T04:58:35.568Z,69.38
2022-10-12T05:02:37.264Z,59.67
2022-10-12T05:06:39.282Z,62.75
2022-10-12T05:10:40.922Z,69.45
2022-10-12T05:14:44.304Z,63.00
2022-10-12T05:18:46.205Z,73.53
2022-10-12T05:22:47.978Z,61.58
2022-10-12T05:26:49.842Z,64.43
2022-10-12T05:30:52.979Z,67.97
2022-10-12T05:34:55.249Z,71.57
2022-10-12T05:38:57.049Z,73.78
2022-10-12T05:42:58.774Z,67.63
2022-10-12T05:47:00.540Z,65.65
2022-10-12T05:51:02.330Z,82.38
2022-10-12T05:55:04.847Z,71.82
2022-10-12T05:59:06.507Z,68.60
2022-10-12T06:03:08.297Z,65.75
2022-10-12T06:07:10.144Z,79.30
2022-10-12T06:11:12.026Z,78.05
2022-10-12T06:15:13.825Z,76.15
2022-10-12T06:19:15.866Z,69.88
2022-10-12T06:23:18.066Z,67.05
2022-10-12T06:27:21.203Z,70.57
2022-10-12T06:31:23.306Z,77.53
2022-10-12T06:35:25.128Z,65.15
2022-10-12T06:39:26.903Z,72.75
2022-10-12T06:43:28.807Z,68.55
2022-10-12T06:47:30.466Z,74.47
2022-10-12T06:51:32.302Z,60.58
2022-10-12T06:55:34.156Z,61.75
2022-10-12T06:59:35.952Z,82.03
2022-10-12T07:03:37.681Z,78.35
2022-10-12T07:07:39.744Z,71.80
2022-10-12T07:11:41.427Z,87.05
2022-10-12T07:15:49.798Z,69.72
2022-10-12T07:19:51.460Z,68.45
2022-10-12T07:23:53.392Z,59.95
2022-10-12T07:27:55.027Z,65.93
2022-10-12T07:31:58.173Z,62.72
2022-10-12T07:36:21.231Z,61.25
2022-10-12T07:40:22.942Z,67.03
2022-10-12T07:44:24.781Z,62.00
2022-10-12T07:48:26.588Z,66.18
2022-10-12T07:52:28.416Z,54.45
2022-10-12T07:56:30.297Z,57.65
2022-10-12T08:00:32.623Z,70.85
2022-10-12T08:04:34.476Z,57.10
2022-10-12T08:08:36.367Z,53.53
2022-10-12T08:12:38.173Z,66.88
2022-10-12T08:16:39.924Z,50.90
2022-10-12T08:20:41.884Z,54.72
2022-10-12T08:24:43.825Z,57.85
2022-10-12T08:28:45.891Z,50.40
2022-10-12T08:32:47.794Z,47.80
2022-10-12T08:36:49.654Z,41.90
2022-10-12T08:40:58.290Z,40.15
2022-10-12T08:45:20.421Z,43.33
2022-10-12T08:49:25.697Z,38.85
2022-10-12T08:53:36.236Z,49.58
2022-10-12T08:57:37.958Z,37.67
2022-10-12T09:01:57.214Z,33.90
2022-10-12T09:06:11.941Z,34.70
2022-10-12T09:10:19.736Z,23.45
2022-10-12T09:14:26.438Z,36.92
2022-10-12T09:18:41.026Z,32.63
2022-10-12T09:22:47.981Z,28.52
2022-10-12T09:26:53.589Z,21.48
2022-10-12T09:31:06.434Z,24.05
2022-10-12T09:35:13.265Z,18.70
2022-10-12T09:39:25.676Z,17.00
2022-10-12T09:43:31.340Z,13.50
2022-10-12T09:47:33.887Z,18.55
2022-10-12T09:51:35.886Z,12.73
2022-10-12T09:55:37.836Z,14.88
2022-10-12T09:59:44.406Z,16.13
2022-10-12T10:03:48.904Z,11.80
2022-10-12T10:07:50.865Z,17.45
2022-10-12T10:11:52.703Z,15.18
2022-10-12T10:16:06.641Z,13.18
2022-10-12T10:20:26.291Z,11.30
2022-10-12T10:24:31.045Z,14.90
2022-10-12T10:28:57.499Z,11.88
2022-10-12T10:33:15.661Z,13.95
2022-10-12T10:37:22.801Z,26.35
2022-10-12T10:41:28.540Z,13.00
2022-10-12T10:45:42.292Z,13.32
2022-10-12T10:49:49.849Z,13.55
2022-10-12T10:53:51.673Z,12.65
2022-10-12T10:58:04.077Z,11.00
2022-10-12T11:02:24.999Z,14.70
2022-10-12T11:06:42.348Z,10.05
2022-10-12T11:10:50.272Z,22.73
2022-10-12T11:14:56.922Z,18.85
2022-10-12T11:19:02.296Z,17.48
2022-10-12T11:23:16.131Z,13.15
2022-10-12T11:27:25.829Z,11.60
2022-10-12T11:31:39.852Z,19.02
2022-10-12T11:35:44.982Z,11.15
2022-10-12T11:39:51.785Z,12.30
2022-10-12T11:44:04.016Z,10.90
2022-10-12T11:48:12.243Z,10.05
2022-10-12T11:52:15.460Z,15.60
2022-10-12T11:56:37.331Z,12.10
2022-10-12T12:01:16.625Z,15.60
2022-10-12T12:05:18.641Z,10.32
2022-10-12T12:09:39.774Z,12.43
2022-10-12T12:13:41.884Z,12.85
2022-10-12T12:18:04.413Z,13.57
2022-10-12T12:22:32.107Z,13.65
2022-10-12T12:26:33.952Z,13.60
2022-10-12T12:30:39.407Z,10.55
2022-10-12T12:34:51.371Z,13.70
2022-10-12T12:38:53.667Z,14.73
2022-10-12T12:43:34.476Z,16.42
2022-10-12T12:47:46.454Z,11.82
2022-10-12T12:51:52.457Z,15.45
2022-10-12T12:56:00.401Z,9.07
2022-10-12T13:00:12.530Z,10.93
2022-10-12T13:04:35.664Z,16.13
2022-10-12T13:08:59.023Z,15.13
2022-10-12T13:13:24.243Z,12.07
2022-10-12T13:17:39.727Z,12.75
2022-10-12T13:21:45.743Z,17.35
2022-10-12T13:25:57.107Z,11.05
2022-10-12T13:30:11.772Z,10.35
2022-10-12T13:34:24.794Z,11.95
2022-10-12T13:38:29.203Z,18.80
2022-10-12T13:42:35.831Z,17.23
2022-10-12T13:46:54.882Z,30.65
2022-10-12T13:51:02.372Z,363.17
2022-10-12T13:55:15.663Z,170.73
2022-10-12T13:59:22.174Z,91.70
2022-10-12T14:03:26.630Z,69.93
2022-10-12T14:07:34.804Z,19.90
2022-10-12T14:11:37.867Z,9.32
2022-10-12T14:15:40.956Z,31.45
2022-10-12T14:19:54.281Z,28.40
2022-10-12T14:23:58.947Z,34.28
2022-10-12T14:28:03.770Z,23.33
2022-10-12T14:32:27.041Z,14.52
2022-10-12T14:36:29.270Z,7.68
2022-10-12T14:40:41.994Z,10.07
2022-10-12T14:44:44.102Z,9.75
2022-10-12T14:48:45.935Z,13.35
2022-10-12T14:52:55.056Z,10.80
2022-10-12T14:57:09.385Z,12.10
2022-10-12T15:01:11.466Z,21.75
2022-10-12T15:05:15.125Z,14.70
2022-10-12T15:09:17.050Z,33.10
2022-10-12T15:13:18.802Z,14.23
2022-10-12T15:17:21.277Z,22.73
2022-10-12T15:21:23.034Z,23.00
2022-10-12T15:25:29.442Z,25.88
2022-10-12T15:29:31.164Z,39.63
2022-10-12T15:33:33.129Z,45.05
2022-10-12T15:37:34.883Z,56.80
2022-10-12T15:41:36.881Z,46.85
2022-10-12T15:45:40.040Z,38.75
2022-10-12T15:49:42.249Z,40.60
2022-10-12T15:53:44.994Z,45.92
2022-10-12T15:57:47.870Z,51.35
2022-10-12T16:01:49.801Z,43.58
2022-10-12T16:05:51.679Z,34.38
2022-10-12T16:09:53.352Z,35.45
2022-10-12T16:13:56.854Z,37.55
2022-10-12T16:18:00.123Z,32.30
2022-10-12T16:22:03.206Z,23.80
2022-10-12T16:26:07.958Z,29.15
2022-10-12T16:30:11.275Z,20.80
2022-10-12T16:34:12.917Z,17.27
2022-10-12T16:38:15.224Z,17.52
2022-10-12T16:42:16.997Z,22.10
2022-10-12T16:46:19.093Z,19.08
2022-10-12T16:50:23.086Z,18.63
2022-10-12T16:54:25.723Z,22.58
2022-10-12T16:58:27.419Z,37.53
2022-10-12T17:02:29.298Z,42.60
2022-10-12T17:06:31.211Z,60.47
2022-10-12T17:10:33.051Z,43.47
2022-10-12T17:14:34.962Z,40.33
2022-10-12T17:18:36.842Z,58.80
2022-10-12T17:22:38.870Z,74.40
2022-10-12T17:26:41.316Z,91.57
2022-10-12T17:30:43.012Z,163.85
2022-10-12T17:34:45.059Z,175.63
2022-10-12T17:38:49.720Z,145.40
2022-10-12T17:42:51.586Z,126.40
2022-10-12T17:46:53.246Z,124.53
2022-10-12T17:51:10.010Z,120.85
2022-10-12T17:55:29.504Z,125.35
2022-10-12T17:59:33.520Z,131.05
2022-10-12T18:03:36.015Z,119.10
2022-10-12T18:07:38.508Z,140.23
2022-10-12T18:11:40.635Z,160.32
2022-10-12T18:15:43.598Z,181.45
2022-10-12T18:19:47.133Z,165.35
2022-10-12T18:23:49.695Z,174.43
2022-10-12T18:27:52.313Z,203.95
2022-10-12T18:31:54.854Z,209.25
2022-10-12T18:36:05.502Z,213.48
2022-10-12T18:40:08.065Z,301.52
2022-10-12T18:44:11.064Z,268.10
2022-10-12T18:48:13.509Z,227.07
2022-10-12T18:52:15.816Z,194.38
2022-10-12T18:56:19.361Z,176.95
2022-10-12T19:00:21.061Z,158.50
2022-10-12T19:04:22.942Z,175.00
2022-10-12T19:08:24.620Z,157.32
2022-10-12T19:12:26.460Z,147.15
2022-10-12T19:16:29.357Z,157.70
2022-10-12T19:20:36.670Z,160.48
2022-10-12T19:24:38.418Z,186.35
2022-10-12T19:28:40.683Z,169.85
2022-10-12T19:32:42.948Z,169.98
2022-10-12T19:36:45.228Z,166.27
2022-10-12T19:40:47.016Z,149.30
2022-10-12T19:44:48.877Z,145.75
2022-10-12T19:48:52.308Z,120.68
2022-10-12T19:52:54.286Z,126.15
2022-10-12T19:56:56.025Z,121.28
2022-10-12T20:01:05.888Z,115.07
2022-10-12T20:05:07.814Z,89.25
2022-10-12T20:09:09.873Z,80.85
2022-10-12T20:13:12.245Z,68.15
2022-10-12T20:17:14.198Z,84.45
2022-10-12T20:21:19.216Z,86.97
2022-10-12T20:25:21.230Z,87.18
2022-10-12T20:29:23.074Z,89.10
2022-10-12T20:33:24.939Z,80.00
2022-10-12T20:37:26.910Z,88.78
2022-10-12T20:41:28.941Z,97.20
2022-10-12T20:45:30.624Z,107.20
2022-10-12T20:49:32.610Z,105.88
2022-10-12T20:53:34.999Z,98.75
2022-10-12T20:57:36.910Z,117.60
2022-10-12T21:01:38.757Z,100.50
2022-10-12T21:05:40.679Z,128.80
2022-10-12T21:09:42.590Z,142.70
2022-10-12T21:13:46.088Z,147.90
2022-10-12T21:17:47.879Z,165.85
2022-10-12T21:21:49.687Z,177.85
2022-10-12T21:25:52.116Z,188.82
2022-10-12T21:29:53.954Z,211.20
2022-10-12T21:33:55.820Z,198.50
2022-10-12T21:37:57.662Z,174.95
2022-10-12T21:41:59.624Z,141.55
2022-10-12T21:46:05.055Z,120.90
2022-10-12T21:50:09.323Z,155.65
2022-10-12T21:54:11.284Z,116.50
2022-10-12T21:58:13.205Z,103.50
2022-10-12T22:02:15.269Z,94.75
2022-10-12T22:06:19.967Z,105.60
2022-10-12T22:10:23.810Z,102.95
2022-10-12T22:14:25.514Z,123.50
2022-10-12T22:18:27.563Z,96.95
2022-10-12T22:22:29.234Z,92.47
2022-10-12T22:26:31.914Z,87.93
2022-10-12T22:30:39.349Z,81.20
2022-10-12T22:34:41.168Z,103.28
2022-10-12T22:38:43.288Z,102.18
2022-10-12T22:42:46.000Z,98.30
2022-10-12T22:46:47.724Z,103.45
2022-10-12T22:50:50.695Z,111.15
2022-10-12T22:54:52.417Z,107.57
2022-10-12T22:58:56.543Z,104.57
2022-10-12T23:02:58.399Z,97.22
2022-10-12T23:07:00.207Z,100.88
2022-10-12T23:11:04.929Z,104.65
2022-10-12T23:15:08.025Z,107.25
2022-10-12T23:19:10.375Z,110.88
2022-10-12T23:23:12.194Z,106.90
2022-10-12T23:27:14.511Z,108.05
2022-10-12T23:31:22.043Z,122.40
2022-10-12T23:35:25.470Z,128.60
2022-10-12T23:39:28.929Z,118.35
2022-10-12T23:43:31.028Z,116.97
2022-10-12T23:47:36.308Z,120.90
2022-10-12T23:51:38.083Z,99.47
2022-10-12T23:55:40.580Z,102.38
2022-10-12T23:59:42.257Z,91.78
